createdAt,value
2022-11-25T00:01:33.465Z,3.40
2022-11-25T00:04:01.614Z,3.29
2022-11-25T00:06:35.505Z,3.52
2022-11-25T00:09:12.819Z,3.57
2022-11-25T00:11:42.947Z,3.49
2022-11-25T00:14:15.609Z,3.56
2022-11-25T00:16:48.127Z,3.69
2022-11-25T00:19:16.481Z,3.77
2022-11-25T00:21:43.640Z,3.82
2022-11-25T00:24:13.135Z,3.71
2022-11-25T00:26:40.166Z,3.43
2022-11-25T00:29:11.244Z,3.48
2022-11-25T00:31:40.595Z,3.60
2022-11-25T00:34:11.821Z,3.45
2022-11-25T00:36:38.942Z,3.37
2022-11-25T00:39:17.503Z,3.32
2022-11-25T00:42:05.194Z,3.52
2022-11-25T00:44:42.039Z,3.70
2022-11-25T00:47:20.462Z,3.73
2022-11-25T00:49:51.453Z,3.75
2022-11-25T00:52:27.524Z,3.83
2022-11-25T00:54:54.909Z,3.78
2022-11-25T00:57:24.303Z,3.62
2022-11-25T00:59:51.452Z,3.61
2022-11-25T01:02:19.986Z,3.45
2022-11-25T01:04:47.442Z,3.53
2022-11-25T01:07:16.781Z,3.59
2022-11-25T01:09:44.074Z,3.55
2022-11-25T01:12:11.175Z,3.65
2022-11-25T01:14:38.799Z,3.74
2022-11-25T01:17:06.351Z,3.78
2022-11-25T01:19:34.468Z,3.69
2022-11-25T01:22:01.538Z,3.56
2022-11-25T01:24:28.553Z,3.72
2022-11-25T01:26:56.017Z,3.57
2022-11-25T01:29:23.366Z,3.70
2022-11-25T01:31:51.123Z,3.79
2022-11-25T01:34:23.563Z,3.78
2022-11-25T01:36:51.397Z,3.69
2022-11-25T01:39:27.032Z,3.71
2022-11-25T01:42:01.050Z,3.85
2022-11-25T01:44:32.181Z,3.87
2022-11-25T01:47:04.790Z,3.60
2022-11-25T01:49:37.280Z,3.63
2022-11-25T01:52:25.012Z,3.68
2022-11-25T01:55:14.349Z,3.49
2022-11-25T01:57:54.421Z,3.63
2022-11-25T02:00:22.219Z,3.78
2022-11-25T02:02:53.160Z,3.86
2022-11-25T02:06:07.240Z,3.81
2022-11-25T02:08:34.329Z,3.92
2022-11-25T02:11:04.635Z,3.79
2022-11-25T02:13:33.322Z,3.76
2022-11-25T02:16:00.649Z,3.79
2022-11-25T02:18:28.097Z,3.71
2022-11-25T02:20:55.495Z,3.79
2022-11-25T02:23:52.333Z,3.70
2022-11-25T02:26:20.328Z,3.74
2022-11-25T02:28:48.702Z,3.63
2022-11-25T02:31:23.849Z,3.38
2022-11-25T02:33:51.033Z,3.36
2022-11-25T02:36:22.868Z,3.40
2022-11-25T02:39:00.663Z,3.12
2022-11-25T02:41:42.555Z,3.15
2022-11-25T02:44:09.994Z,3.06
2022-11-25T02:46:37.186Z,3.26
2022-11-25T02:49:09.220Z,3.33
2022-11-25T02:51:40.418Z,3.06
2022-11-25T02:54:08.049Z,3.00
2022-11-25T02:56:37.110Z,2.96
2022-11-25T02:59:04.899Z,3.02
2022-11-25T03:01:33.261Z,3.03
2022-11-25T03:04:01.012Z,3.09
2022-11-25T03:06:29.858Z,2.95
2022-11-25T03:08:57.809Z,2.92
2022-11-25T03:11:45.499Z,2.91
2022-11-25T03:14:12.775Z,2.81
2022-11-25T03:16:40.023Z,2.96
2022-11-25T03:19:08.449Z,3.23
2022-11-25T03:21:35.494Z,3.37
2022-11-25T03:24:02.541Z,3.43
2022-11-25T03:26:29.617Z,3.34
2022-11-25T03:28:56.762Z,3.43
2022-11-25T03:31:23.812Z,3.47
2022-11-25T03:33:50.862Z,3.63
2022-11-25T03:36:17.851Z,3.53
2022-11-25T03:38:44.848Z,3.59
2022-11-25T03:41:15.958Z,3.63
2022-11-25T03:43:42.951Z,3.80
2022-11-25T03:46:10.042Z,3.54
2022-11-25T03:48:37.249Z,3.68
2022-11-25T03:51:07.751Z,3.84
2022-11-25T03:53:37.237Z,3.81
2022-11-25T03:56:09.822Z,3.78
2022-11-25T03:58:48.450Z,3.88
2022-11-25T04:01:15.501Z,3.80
2022-11-25T04:03:42.679Z,3.76
2022-11-25T04:06:12.734Z,3.65
2022-11-25T04:08:39.756Z,3.66
2022-11-25T04:11:06.831Z,3.68
2022-11-25T04:13:35.330Z,3.88
2022-11-25T04:16:02.635Z,3.69
2022-11-25T04:18:29.929Z,3.51
2022-11-25T04:20:58.055Z,3.80
2022-11-25T04:23:28.303Z,3.59
2022-11-25T04:25:55.664Z,3.83
2022-11-25T04:28:22.632Z,3.85
2022-11-25T04:30:49.903Z,3.59
2022-11-25T04:33:17.164Z,3.63
2022-11-25T04:35:45.463Z,3.86
2022-11-25T04:38:15.930Z,4.00
2022-11-25T04:40:43.086Z,3.75
2022-11-25T04:43:15.947Z,3.89
2022-11-25T04:46:12.546Z,3.92
2022-11-25T04:48:30.209Z,3.68
2022-11-25T04:50:57.255Z,3.72
2022-11-25T04:53:26.748Z,3.95
2022-11-25T04:55:53.969Z,4.02
2022-11-25T04:58:41.017Z,3.87
2022-11-25T05:01:08.070Z,3.88
2022-11-25T05:03:35.326Z,3.92
2022-11-25T05:06:10.255Z,3.94
2022-11-25T05:08:37.189Z,3.94
2022-11-25T05:11:04.292Z,3.92
2022-11-25T05:13:31.284Z,3.67
2022-11-25T05:16:00.433Z,3.65
2022-11-25T05:18:27.571Z,3.76
2022-11-25T05:20:54.579Z,3.91
2022-11-25T05:23:24.510Z,3.93
2022-11-25T05:25:51.518Z,3.82
2022-11-25T05:28:18.627Z,3.87
2022-11-25T05:30:45.803Z,3.74
2022-11-25T05:33:13.000Z,3.78
2022-11-25T05:35:40.009Z,3.68
2022-11-25T05:38:07.022Z,3.85
2022-11-25T05:40:34.528Z,3.79
2022-11-25T05:43:02.996Z,3.75
2022-11-25T05:45:29.991Z,3.77
2022-11-25T05:47:59.672Z,3.85
2022-11-25T05:50:26.647Z,3.84
2022-11-25T05:52:53.679Z,3.88
2022-11-25T05:55:21.000Z,4.02
2022-11-25T05:57:47.985Z,3.99
2022-11-25T06:00:15.712Z,4.09
2022-11-25T06:02:43.114Z,4.21
2022-11-25T06:05:10.185Z,4.11
2022-11-25T06:07:37.195Z,4.09
2022-11-25T06:10:05.082Z,4.16
2022-11-25T06:12:32.075Z,4.21
2022-11-25T06:14:59.330Z,4.30
2022-11-25T06:17:26.555Z,4.06
2022-11-25T06:19:53.750Z,4.09
2022-11-25T06:22:21.004Z,4.25
2022-11-25T06:24:55.383Z,4.32
2022-11-25T06:27:26.174Z,4.30
2022-11-25T06:29:55.907Z,4.19
2022-11-25T06:32:23.373Z,4.33
2022-11-25T06:34:50.395Z,4.25
2022-11-25T06:37:18.083Z,4.23
2022-11-25T06:39:45.271Z,4.02
2022-11-25T06:42:12.331Z,3.97
2022-11-25T06:44:39.408Z,4.04
2022-11-25T06:47:06.732Z,3.99
2022-11-25T06:49:34.181Z,3.79
2022-11-25T06:52:01.615Z,3.91
2022-11-25T06:54:29.019Z,3.92
2022-11-25T06:56:56.182Z,3.68
2022-11-25T06:59:26.607Z,3.63
2022-11-25T07:01:53.695Z,3.59
2022-11-25T07:04:20.815Z,3.72
2022-11-25T07:06:50.642Z,3.78
2022-11-25T07:09:19.500Z,3.81
2022-11-25T07:11:47.090Z,3.85
2022-11-25T07:14:17.196Z,3.82
2022-11-25T07:16:46.032Z,3.84
2022-11-25T07:19:17.286Z,3.92
2022-11-25T07:21:46.376Z,3.96
2022-11-25T07:24:26.080Z,3.93
2022-11-25T07:26:53.157Z,4.06
2022-11-25T07:29:50.451Z,4.12
2022-11-25T07:32:10.815Z,4.26
2022-11-25T07:34:38.416Z,4.38
2022-11-25T07:37:05.545Z,4.48
2022-11-25T07:39:32.859Z,4.37
2022-11-25T07:41:59.921Z,4.38
2022-11-25T07:44:27.049Z,4.32
2022-11-25T07:46:54.128Z,4.27
2022-11-25T07:49:26.933Z,4.46
2022-11-25T07:52:01.305Z,4.56
2022-11-25T07:54:31.143Z,4.37
2022-11-25T07:56:58.332Z,4.55
2022-11-25T07:59:25.709Z,4.45
2022-11-25T08:01:55.616Z,4.62
2022-11-25T08:04:23.819Z,4.54
2022-11-25T08:06:53.545Z,4.34
2022-11-25T08:09:23.945Z,4.23
2022-11-25T08:11:51.482Z,4.28
2022-11-25T08:14:21.793Z,4.20
2022-11-25T08:16:51.933Z,4.17
2022-11-25T08:19:19.723Z,4.46
2022-11-25T08:21:50.103Z,4.64
2022-11-25T08:24:20.907Z,4.62
2022-11-25T08:26:49.149Z,4.52
2022-11-25T08:29:19.307Z,4.69
2022-11-25T08:31:47.026Z,4.45
2022-11-25T08:34:24.064Z,4.55
2022-11-25T08:36:52.002Z,4.48
2022-11-25T08:39:51.067Z,4.78
2022-11-25T08:42:09.418Z,4.98
2022-11-25T08:44:37.617Z,4.99
2022-11-25T08:47:04.884Z,4.84
2022-11-25T08:49:37.525Z,4.73
2022-11-25T08:52:07.815Z,5.01
2022-11-25T08:54:35.201Z,5.10
2022-11-25T08:57:02.628Z,5.06
2022-11-25T08:59:29.637Z,5.07
2022-11-25T09:01:56.781Z,5.08
2022-11-25T09:04:23.851Z,4.91
2022-11-25T09:06:50.841Z,4.61
2022-11-25T09:09:17.936Z,4.97
2022-11-25T09:11:45.164Z,4.62
2022-11-25T09:14:12.734Z,4.86
2022-11-25T09:16:40.249Z,4.83
2022-11-25T09:19:07.278Z,5.04
2022-11-25T09:21:34.305Z,4.49
2022-11-25T09:24:01.342Z,4.95
2022-11-25T09:26:35.720Z,5.16
2022-11-25T09:29:03.509Z,5.19
2022-11-25T09:31:30.640Z,5.33
2022-11-25T09:33:57.801Z,5.41
2022-11-25T09:36:25.190Z,5.67
2022-11-25T09:38:52.935Z,5.42
2022-11-25T09:41:52.630Z,5.51
2022-11-25T09:45:14.506Z,5.82
2022-11-25T09:48:06.170Z,5.97
2022-11-25T09:51:09.246Z,5.67
2022-11-25T09:53:47.406Z,5.31
2022-11-25T09:56:38.244Z,5.27
2022-11-25T09:59:08.076Z,5.31
2022-11-25T10:01:59.202Z,5.59
2022-11-25T10:04:45.569Z,5.71
2022-11-25T10:07:33.166Z,5.79
2022-11-25T10:10:05.364Z,5.82
2022-11-25T10:12:42.444Z,5.88
2022-11-25T10:15:23.426Z,5.70
2022-11-25T10:18:00.601Z,5.62
2022-11-25T10:20:35.498Z,5.63
2022-11-25T10:23:12.163Z,5.86
2022-11-25T10:25:46.585Z,5.45
2022-11-25T10:28:24.672Z,5.38
2022-11-25T10:31:19.851Z,5.31
2022-11-25T10:33:58.507Z,5.42
2022-11-25T10:36:36.995Z,5.69
2022-11-25T10:39:26.973Z,5.78
2022-11-25T10:42:07.134Z,6.00
2022-11-25T10:44:39.982Z,6.05
2022-11-25T10:47:52.251Z,5.99
2022-11-25T10:51:18.075Z,5.99
2022-11-25T10:54:16.339Z,6.01
2022-11-25T10:57:16.901Z,6.27
2022-11-25T11:00:00.309Z,6.42
2022-11-25T11:02:34.402Z,6.43
2022-11-25T11:05:31.196Z,6.10
2022-11-25T11:08:39.173Z,6.35
2022-11-25T11:11:23.079Z,6.41
2022-11-25T11:13:59.170Z,6.38
2022-11-25T11:16:45.555Z,6.60
2022-11-25T11:19:30.899Z,6.39
2022-11-25T11:22:16.324Z,6.38
2022-11-25T11:24:43.512Z,6.56
2022-11-25T11:27:10.330Z,6.64
2022-11-25T11:29:37.391Z,6.90
2022-11-25T11:32:08.011Z,7.08
2022-11-25T11:35:16.874Z,6.92
2022-11-25T11:37:47.563Z,6.90
2022-11-25T11:40:46.475Z,6.48
2022-11-25T11:44:07.744Z,6.69
2022-11-25T11:46:51.878Z,6.66
2022-11-25T11:50:22.092Z,6.90
2022-11-25T11:53:16.186Z,6.16
2022-11-25T11:56:35.202Z,6.12
2022-11-25T11:59:51.197Z,6.03
2022-11-25T12:02:24.680Z,6.21
2022-11-25T12:05:09.548Z,6.41
2022-11-25T12:08:06.685Z,6.48
2022-11-25T12:10:45.801Z,6.48
2022-11-25T12:14:00.708Z,6.10
2022-11-25T12:16:47.607Z,6.24
2022-11-25T12:19:38.838Z,6.25
2022-11-25T12:22:36.634Z,6.50
2022-11-25T12:25:23.837Z,6.57
2022-11-25T12:28:29.284Z,6.36
2022-11-25T12:31:42.124Z,6.12
2022-11-25T12:34:27.645Z,6.00
2022-11-25T12:37:14.995Z,6.14
2022-11-25T12:40:26.885Z,6.07
2022-11-25T12:43:12.557Z,5.97
2022-11-25T12:45:41.591Z,5.98
2022-11-25T12:48:11.853Z,5.88
2022-11-25T12:51:07.163Z,6.08
2022-11-25T12:54:03.894Z,6.03
2022-11-25T12:57:45.857Z,6.16
2022-11-25T13:00:43.229Z,6.11
2022-11-25T13:03:54.454Z,6.02
2022-11-25T13:06:59.167Z,6.11
2022-11-25T13:09:59.888Z,5.91
2022-11-25T13:13:07.052Z,6.06
2022-11-25T13:15:49.566Z,5.99
2022-11-25T13:18:25.995Z,5.96
2022-11-25T13:21:05.538Z,5.91
2022-11-25T13:23:56.095Z,5.78
2022-11-25T13:26:33.670Z,5.83
2022-11-25T13:29:14.968Z,5.91
2022-11-25T13:32:08.245Z,5.71
2022-11-25T13:34:36.800Z,5.72
2022-11-25T13:37:40.814Z,5.67
2022-11-25T13:40:26.268Z,5.71
2022-11-25T13:42:58.137Z,5.81
2022-11-25T13:45:44.331Z,5.75
2022-11-25T13:48:37.018Z,5.87
2022-11-25T13:51:23.648Z,5.89
2022-11-25T13:54:04.721Z,5.96
2022-11-25T13:56:37.545Z,6.01
2022-11-25T13:59:10.448Z,5.90
2022-11-25T14:02:17.728Z,5.86
2022-11-25T14:05:55.936Z,5.70
2022-11-25T14:08:59.764Z,5.63
2022-11-25T14:12:21.097Z,5.74
2022-11-25T14:15:31.115Z,5.78
2022-11-25T14:19:00.345Z,5.76
2022-11-25T14:21:38.274Z,5.64
2022-11-25T14:24:30.877Z,5.76
2022-11-25T14:27:00.686Z,5.75
2022-11-25T14:29:42.089Z,5.83
2022-11-25T14:32:35.375Z,5.80
2022-11-25T14:35:45.105Z,5.79
2022-11-25T14:38:57.272Z,5.92
2022-11-25T14:42:00.484Z,5.85
2022-11-25T14:44:53.183Z,5.74
2022-11-25T14:47:27.877Z,5.70
2022-11-25T14:52:47.717Z,5.71
2022-11-25T14:55:31.276Z,5.61
2022-11-25T14:57:58.494Z,5.59
2022-11-25T15:00:25.743Z,5.69
2022-11-25T15:03:06.698Z,5.68
2022-11-25T15:05:39.507Z,5.61
2022-11-25T15:08:18.025Z,5.74
2022-11-25T15:11:03.841Z,5.80
2022-11-25T15:13:59.780Z,5.72
2022-11-25T15:16:41.482Z,5.72
2022-11-25T15:19:24.721Z,5.70
2022-11-25T15:24:56.352Z,5.80
2022-11-25T15:27:28.756Z,5.87
2022-11-25T15:29:58.932Z,5.82
2022-11-25T15:32:30.885Z,5.76
2022-11-25T15:35:01.564Z,5.80
2022-11-25T15:37:29.277Z,5.78
2022-11-25T15:40:37.321Z,5.71
2022-11-25T15:43:28.406Z,5.74
2022-11-25T15:46:03.248Z,5.78
2022-11-25T15:48:46.704Z,5.70
2022-11-25T15:51:49.352Z,5.78
2022-11-25T15:54:21.488Z,5.76
2022-11-25T15:56:53.362Z,5.72
2022-11-25T15:59:41.825Z,5.74
2022-11-25T16:02:48.460Z,5.78
2022-11-25T16:05:15.330Z,5.70
2022-11-25T16:07:51.435Z,5.68
2022-11-25T16:10:32.999Z,5.61
2022-11-25T16:13:22.187Z,5.77
2022-11-25T16:16:07.326Z,5.84
2022-11-25T16:19:04.879Z,5.83
2022-11-25T16:21:46.100Z,5.76
2022-11-25T16:24:48.886Z,5.77
2022-11-25T16:27:26.899Z,5.85
2022-11-25T16:30:18.551Z,5.81
2022-11-25T16:32:45.638Z,5.79
2022-11-25T16:35:18.235Z,5.79
2022-11-25T16:37:48.833Z,5.77
2022-11-25T16:40:18.857Z,5.67
2022-11-25T16:42:50.063Z,5.73
2022-11-25T16:45:27.720Z,5.83
2022-11-25T16:47:55.241Z,5.64
2022-11-25T16:50:22.889Z,5.63
2022-11-25T16:52:50.084Z,5.87
2022-11-25T16:55:18.514Z,5.82
2022-11-25T16:57:45.853Z,5.81
2022-11-25T17:00:18.034Z,5.75
2022-11-25T17:02:45.945Z,5.80
2022-11-25T17:05:22.511Z,5.84
2022-11-25T17:07:50.348Z,5.76
2022-11-25T17:10:19.187Z,5.74
2022-11-25T17:12:48.545Z,5.73
2022-11-25T17:15:28.317Z,5.81
2022-11-25T17:17:55.444Z,5.81
2022-11-25T17:20:25.083Z,5.82
2022-11-25T17:22:53.988Z,5.83
2022-11-25T17:25:29.955Z,5.90
2022-11-25T17:28:00.956Z,5.95
2022-11-25T17:30:28.603Z,5.86
2022-11-25T17:33:10.839Z,5.84
2022-11-25T17:35:37.824Z,5.73
2022-11-25T17:38:21.284Z,5.75
2022-11-25T17:40:50.448Z,5.64
2022-11-25T17:43:20.890Z,5.69
2022-11-25T17:45:47.968Z,5.61
2022-11-25T17:48:18.583Z,5.71
2022-11-25T17:50:46.840Z,5.79
2022-11-25T17:53:13.906Z,5.78
2022-11-25T17:55:41.937Z,5.79
2022-11-25T17:58:14.580Z,5.71
2022-11-25T18:00:45.190Z,5.69
2022-11-25T18:03:18.829Z,5.81
2022-11-25T18:05:46.030Z,5.81
2022-11-25T18:08:13.015Z,5.76
2022-11-25T18:10:40.336Z,5.83
2022-11-25T18:13:07.377Z,5.77
2022-11-25T18:15:34.694Z,5.76
2022-11-25T18:18:06.831Z,5.76
2022-11-25T18:20:34.785Z,5.77
2022-11-25T18:23:01.938Z,5.80
2022-11-25T18:25:33.952Z,5.74
2022-11-25T18:28:03.353Z,5.74
2022-11-25T18:30:36.057Z,5.74
2022-11-25T18:33:06.103Z,5.77
2022-11-25T18:35:36.744Z,5.64
2022-11-25T18:38:05.681Z,5.71
2022-11-25T18:40:36.079Z,5.66
2022-11-25T18:43:04.739Z,5.63
2022-11-25T18:45:37.580Z,5.64
2022-11-25T18:48:25.226Z,5.64
2022-11-25T18:50:55.873Z,5.66
2022-11-25T18:53:23.532Z,5.65
2022-11-25T18:55:50.643Z,5.66
2022-11-25T18:58:19.934Z,5.58
2022-11-25T19:00:49.350Z,5.60
2022-11-25T19:03:25.826Z,5.62
2022-11-25T19:05:59.285Z,5.51
2022-11-25T19:08:26.449Z,5.58
2022-11-25T19:10:53.635Z,5.50
2022-11-25T19:13:33.164Z,5.51
2022-11-25T19:16:12.690Z,5.55
2022-11-25T19:18:40.424Z,5.45
2022-11-25T19:21:09.956Z,5.59
2022-11-25T19:23:36.939Z,5.58
2022-11-25T19:26:12.630Z,5.48
2022-11-25T19:28:40.412Z,5.29
2022-11-25T19:31:10.225Z,5.35
2022-11-25T19:33:41.599Z,5.44
2022-11-25T19:36:23.890Z,5.45
2022-11-25T19:38:51.615Z,5.46
2022-11-25T19:41:20.433Z,5.54
2022-11-25T19:43:47.573Z,5.51
2022-11-25T19:46:41.185Z,5.60
2022-11-25T19:49:19.799Z,5.64
2022-11-25T19:51:48.744Z,5.60
2022-11-25T19:54:19.433Z,5.72
2022-11-25T19:56:46.908Z,5.79
2022-11-25T19:59:13.895Z,5.81
2022-11-25T20:01:45.313Z,5.74
2022-11-25T20:04:22.192Z,5.68
2022-11-25T20:06:49.773Z,5.72
2022-11-25T20:09:16.880Z,5.76
2022-11-25T20:11:44.142Z,5.77
2022-11-25T20:14:12.397Z,5.84
2022-11-25T20:16:41.633Z,5.82
2022-11-25T20:19:17.699Z,5.83
2022-11-25T20:21:46.428Z,5.81
2022-11-25T20:24:18.830Z,5.80
2022-11-25T20:26:48.495Z,5.81
2022-11-25T20:29:24.674Z,5.83
2022-11-25T20:31:56.578Z,5.92
2022-11-25T20:34:24.714Z,5.90
2022-11-25T20:36:51.791Z,5.75
2022-11-25T20:39:20.522Z,5.77
2022-11-25T20:41:51.368Z,5.77
2022-11-25T20:44:19.870Z,5.73
2022-11-25T20:46:46.931Z,5.83
2022-11-25T20:49:27.655Z,5.78
2022-11-25T20:51:58.164Z,5.89
2022-11-25T20:54:25.500Z,5.97
2022-11-25T20:56:52.578Z,5.83
2022-11-25T20:59:23.797Z,5.82
2022-11-25T21:01:52.620Z,5.81
2022-11-25T21:04:20.289Z,5.74
2022-11-25T21:06:47.647Z,5.70
2022-11-25T21:09:24.836Z,5.83
2022-11-25T21:11:51.821Z,5.86
2022-11-25T21:14:20.241Z,5.88
2022-11-25T21:16:47.565Z,5.84
2022-11-25T21:19:15.131Z,5.78
2022-11-25T21:21:47.241Z,5.85
2022-11-25T21:24:28.355Z,5.60
2022-11-25T21:26:58.825Z,5.79
2022-11-25T21:29:26.848Z,5.92
2022-11-25T21:31:54.071Z,5.92
2022-11-25T21:34:21.518Z,5.99
2022-11-25T21:36:51.859Z,5.99
2022-11-25T21:39:34.041Z,6.05
2022-11-25T21:42:07.231Z,5.99
2022-11-25T21:44:41.165Z,6.04
2022-11-25T21:47:22.130Z,6.07
2022-11-25T21:49:50.283Z,5.97
2022-11-25T21:52:18.639Z,5.91
2022-11-25T21:54:46.404Z,5.90
2022-11-25T21:57:29.056Z,5.94
2022-11-25T21:59:56.347Z,5.93
2022-11-25T22:02:24.833Z,5.86
2022-11-25T22:04:52.829Z,5.81
2022-11-25T22:07:20.075Z,5.83
2022-11-25T22:09:47.261Z,5.92
2022-11-25T22:12:30.306Z,5.95
2022-11-25T22:14:59.498Z,5.99
2022-11-25T22:17:27.102Z,5.97
2022-11-25T22:19:54.547Z,5.91
2022-11-25T22:22:21.836Z,5.96
2022-11-25T22:24:49.055Z,5.93
2022-11-25T22:27:36.361Z,5.98
2022-11-25T22:30:05.819Z,6.04
2022-11-25T22:32:32.921Z,6.04
2022-11-25T22:35:03.179Z,5.95
2022-11-25T22:37:32.224Z,5.91
2022-11-25T22:39:59.475Z,5.96
2022-11-25T22:42:32.363Z,6.07
2022-11-25T22:45:03.519Z,6.12
2022-11-25T22:47:48.421Z,6.14
2022-11-25T22:50:32.152Z,6.17
2022-11-25T22:53:00.983Z,6.18
2022-11-25T22:55:33.764Z,6.09
2022-11-25T22:58:04.447Z,6.07
2022-11-25T23:00:51.897Z,6.17
2022-11-25T23:03:33.860Z,6.16
2022-11-25T23:06:03.125Z,6.22
2022-11-25T23:08:31.674Z,6.21
2022-11-25T23:10:59.082Z,6.25
2022-11-25T23:13:26.497Z,6.26
2022-11-25T23:15:58.209Z,6.29
2022-11-25T23:18:39.522Z,6.30
2022-11-25T23:21:24.004Z,6.29
2022-11-25T23:23:52.371Z,6.30
2022-11-25T23:26:19.501Z,6.32
2022-11-25T23:28:46.488Z,6.31
2022-11-25T23:31:16.079Z,6.25
2022-11-25T23:33:50.504Z,6.23
2022-11-25T23:36:46.151Z,6.27
2022-11-25T23:39:25.941Z,6.27
2022-11-25T23:41:54.196Z,6.27
2022-11-25T23:44:31.675Z,6.31
2022-11-25T23:47:04.313Z,6.30
2022-11-25T23:49:41.154Z,6.27
2022-11-25T23:52:13.721Z,6.23
2022-11-25T23:54:46.541Z,6.22
2022-11-25T23:57:22.321Z,6.22
2022-11-25T23:59:51.064Z,6.28
